Time;durP1;ratioP1;P1;durP2;ratioP2;P2;SDS_P1;SDS_P2;PMS_P1;PMS_P2;Temp;Humidity;BMP_temperature;BMP_pressure;BME280_temperature;BME280_humidity;BME280_pressure;Samples;Min_cycle;Max_cycle;Signal;HPM_P1;HPM_P2
2024/01/06 00:02:09;;;;;;;4.63;2.58;;;;;;;-13.00;100.00;101503.34;5073615;28;20110;-72
2024/01/06 00:04:35;;;;;;;6.80;3.22;;;;;;;-12.97;100.00;101508.47;5055064;28;20036;-71
2024/01/06 00:07:00;;;;;;;6.35;3.03;;;;;;;-13.13;100.00;101485.47;5055325;28;20034;-71
2024/01/06 00:09:25;;;;;;;5.28;2.65;;;;;;;-13.03;100.00;101517.22;5044682;28;20039;-72
2024/01/06 00:11:52;;;;;;;9.10;3.22;;;;;;;-13.15;100.00;101509.69;5084676;28;20032;-72
2024/01/06 00:14:17;;;;;;;4.95;2.58;;;;;;;-13.05;100.00;101524.16;5039364;28;20082;-72
2024/01/06 00:16:43;;;;;;;6.05;3.25;;;;;;;-13.04;100.00;101524.13;5073106;28;20032;-72
2024/01/06 00:19:08;;;;;;;5.20;3.08;;;;;;;-13.08;100.00;101526.81;5080417;28;20028;-72
2024/01/06 00:21:34;;;;;;;4.50;2.67;;;;;;;-13.07;100.00;101531.13;5045760;28;20515;-72
2024/01/06 00:23:59;;;;;;;5.35;3.10;;;;;;;-13.09;100.00;101530.28;5057132;28;20479;-72
2024/01/06 00:26:25;;;;;;;5.78;3.05;;;;;;;-13.14;100.00;101542.47;5040790;28;20025;-71
2024/01/06 00:28:50;;;;;;;4.10;1.98;;;;;;;-13.16;100.00;101545.09;5039193;28;20529;-72
2024/01/06 00:31:19;;;;;;;6.82;2.95;;;;;;;-13.12;100.00;101544.13;5039284;28;20025;-71
2024/01/06 00:33:45;;;;;;;6.22;2.70;;;;;;;-13.12;100.00;101546.72;5072870;28;20021;-72
2024/01/06 00:36:10;;;;;;;4.70;2.45;;;;;;;-13.08;100.00;101552.69;5038093;28;20388;-72
2024/01/06 00:38:36;;;;;;;5.15;2.83;;;;;;;-13.08;100.00;101556.16;5075107;28;20521;-71
2024/01/06 00:41:02;;;;;;;4.28;2.22;;;;;;;-13.02;100.00;101557.75;5025185;28;20048;-71
2024/01/06 00:43:27;;;;;;;4.57;2.47;;;;;;;-12.96;100.00;101564.56;5076357;28;20060;-71
2024/01/06 00:45:53;;;;;;;5.28;2.72;;;;;;;-12.94;100.00;101566.25;5058184;28;20029;-71
2024/01/06 00:48:18;;;;;;;5.25;2.83;;;;;;;-12.94;100.00;101576.63;5057911;28;20055;-72
2024/01/06 00:50:44;;;;;;;3.38;2.38;;;;;;;-12.98;100.00;101574.09;5075607;28;20115;-72
2024/01/06 00:53:09;;;;;;;6.00;2.72;;;;;;;-12.99;100.00;101580.16;5076579;28;20029;-72
2024/01/06 00:55:34;;;;;;;5.57;2.53;;;;;;;-13.02;100.00;101581.06;5058577;28;20025;-72
2024/01/06 00:58:00;;;;;;;6.40;3.10;;;;;;;-13.06;100.00;101587.22;5059172;28;20035;-71
2024/01/06 01:00:27;;;;;;;5.13;2.75;;;;;;;-13.10;100.00;101585.56;5059541;28;20055;-71
2024/01/06 01:02:52;;;;;;;4.70;2.92;;;;;;;-13.31;100.00;101550.59;5059321;28;20103;-72
2024/01/06 01:05:18;;;;;;;5.40;2.70;;;;;;;-13.10;100.00;101594.19;5077493;28;20473;-71
2024/01/06 01:07:43;;;;;;;5.57;2.97;;;;;;;-13.13;100.00;101594.25;5042331;28;20112;-72
2024/01/06 01:10:09;;;;;;;6.03;2.58;;;;;;;-13.27;100.00;101581.59;5025590;28;20046;-71
2024/01/06 01:12:35;;;;;;;4.05;2.15;;;;;;;-13.20;100.00;101596.97;5079021;28;20086;-72
2024/01/06 01:15:00;;;;;;;3.95;2.05;;;;;;;-13.26;100.00;101593.66;5084113;28;20032;-72
2024/01/06 01:17:26;;;;;;;3.97;2.38;;;;;;;-13.33;100.00;101597.22;5063688;28;20029;-71
2024/01/06 01:19:51;;;;;;;5.43;2.90;;;;;;;-13.37;100.00;101593.00;5078027;28;20631;-71
2024/01/06 01:22:17;;;;;;;6.78;2.63;;;;;;;-13.40;100.00;101598.22;5059726;28;20127;-71
2024/01/06 01:24:44;;;;;;;5.03;2.78;;;;;;;-13.44;100.00;101603.47;5024987;28;20052;-71
2024/01/06 01:27:09;;;;;;;3.97;2.30;;;;;;;-13.45;100.00;101600.03;5076392;28;20036;-71
2024/01/06 01:29:35;;;;;;;3.63;2.25;;;;;;;-13.48;100.00;101600.09;5057855;28;20479;-71
2024/01/06 01:32:00;;;;;;;5.07;2.78;;;;;;;-13.47;100.00;101604.41;5075869;28;20078;-71
2024/01/06 01:34:26;;;;;;;4.75;2.50;;;;;;;-13.48;100.00;101600.09;5041763;28;20034;-72
2024/01/06 01:36:52;;;;;;;5.35;2.47;;;;;;;-13.47;100.00;101600.94;5040755;28;20032;-71
2024/01/06 01:39:17;;;;;;;5.97;2.70;;;;;;;-13.71;100.00;101563.41;5075886;28;20044;-71
2024/01/06 01:41:42;;;;;;;4.35;2.33;;;;;;;-13.55;100.00;101598.50;5056996;28;20445;-72
2024/01/06 01:44:08;;;;;;;5.45;2.65;;;;;;;-13.89;100.00;101552.50;5057350;28;20048;-71
2024/01/06 01:46:33;;;;;;;7.47;2.40;;;;;;;-13.55;100.00;101609.69;5057380;28;20017;-72
2024/01/06 01:49:01;;;;;;;6.03;2.70;;;;;;;-13.57;100.00;101608.03;5075001;28;20031;-72
2024/01/06 01:51:28;;;;;;;5.82;2.90;;;;;;;-13.62;100.00;101615.84;5074315;28;20038;-71
2024/01/06 01:53:55;;;;;;;6.35;2.60;;;;;;;-13.71;100.00;101604.81;5057429;28;20025;-72
2024/01/06 01:56:21;;;;;;;5.95;2.72;;;;;;;-13.93;100.00;101574.13;5075173;28;20124;-71
2024/01/06 01:58:49;;;;;;;6.55;2.30;;;;;;;-13.73;100.00;101617.78;5077951;28;20075;-71
2024/01/06 02:01:15;;;;;;;4.25;2.35;;;;;;;-13.70;100.00;101614.28;5045204;28;20056;-69
2024/01/06 02:03:44;;;;;;;5.47;2.50;;;;;;;-13.83;100.00;101592.94;5080488;28;20036;-71
2024/01/06 02:06:11;;;;;;;3.67;2.03;;;;;;;-13.68;100.00;101617.69;5078769;28;20077;-71
2024/01/06 02:08:37;;;;;;;6.57;2.50;;;;;;;-13.68;100.00;101620.28;5047556;28;20029;-72
2024/01/06 02:11:03;;;;;;;3.53;2.25;;;;;;;-13.67;100.00;101624.56;5081837;28;20131;-72
2024/01/06 02:13:37;;;;;;;4.30;2.20;;;;;;;-13.79;100.00;101610.13;5077956;28;20230;-71
2024/01/06 02:16:05;;;;;;;4.22;2.28;;;;;;;-13.68;100.00;101638.38;5059155;28;20028;-71
2024/01/06 02:18:33;;;;;;;4.97;2.40;;;;;;;-13.75;100.00;101633.31;5057586;28;20040;-72
2024/01/06 02:21:01;;;;;;;6.85;2.40;;;;;;;-13.74;100.00;101642.81;5056867;28;20032;-71
2024/01/06 02:23:29;;;;;;;4.43;2.40;;;;;;;-13.97;100.00;101612.13;5075020;28;20372;-72
2024/01/06 02:25:56;;;;;;;4.50;2.33;;;;;;;-13.77;100.00;101649.75;5075601;28;20089;-71
2024/01/06 02:28:22;;;;;;;4.63;2.30;;;;;;;-13.81;100.00;101648.94;5057115;28;20368;-71
2024/01/06 02:30:49;;;;;;;6.03;2.50;;;;;;;-13.83;100.00;101653.28;5074048;28;20040;-71
2024/01/06 02:33:14;;;;;;;5.32;2.20;;;;;;;-13.89;100.00;101650.78;5074572;28;20024;-72
2024/01/06 02:35:40;;;;;;;4.05;2.00;;;;;;;-14.08;100.00;101632.09;5023012;28;20035;-72
2024/01/06 02:38:06;;;;;;;3.70;2.22;;;;;;;-14.11;100.00;101636.47;5056093;28;20479;-72
2024/01/06 02:40:32;;;;;;;4.47;2.30;;;;;;;-14.16;100.00;101641.72;5056279;28;20424;-71
2024/01/06 02:42:58;;;;;;;4.65;2.33;;;;;;;-14.06;100.00;101652.78;5056494;28;20056;-72
2024/01/06 02:45:23;;;;;;;6.45;2.47;;;;;;;-14.14;100.00;101652.88;5074355;28;20085;-72
2024/01/06 02:47:48;;;;;;;3.78;2.20;;;;;;;-14.31;100.00;101618.66;5022468;28;20533;-71
2024/01/06 02:50:15;;;;;;;3.45;2.00;;;;;;;-14.11;100.00;101647.66;5074252;28;20413;-71
2024/01/06 02:52:41;;;;;;;3.70;1.92;;;;;;;-14.19;100.00;101656.41;5056180;28;20028;-71
2024/01/06 02:55:06;;;;;;;3.95;2.22;;;;;;;-14.34;100.00;101631.59;5039129;28;20087;-71
2024/01/06 02:57:32;;;;;;;4.35;2.47;;;;;;;-14.22;100.00;101652.13;5073088;28;20523;-71
2024/01/06 02:59:57;;;;;;;4.85;2.10;;;;;;;-14.29;100.00;101646.19;5055193;28;20039;-71
2024/01/06 03:02:23;;;;;;;4.40;2.17;;;;;;;-14.28;100.00;101650.47;5061299;28;20040;-72
2024/01/06 03:04:49;;;;;;;5.22;2.17;;;;;;;-14.31;100.00;101647.94;5075844;28;20094;-71
2024/01/06 03:07:14;;;;;;;3.67;2.30;;;;;;;-14.50;100.00;101624.09;5058085;28;20020;-72
2024/01/06 03:09:39;;;;;;;4.40;2.28;;;;;;;-14.36;100.00;101654.91;5056421;28;20151;-71
2024/01/06 03:12:07;;;;;;;3.75;2.15;;;;;;;-14.55;100.00;101632.78;5056781;28;20037;-72
2024/01/06 03:14:35;;;;;;;4.65;2.22;;;;;;;-14.41;100.00;101661.00;5056255;28;20673;-71
2024/01/06 03:17:01;;;;;;;3.60;2.20;;;;;;;-14.73;100.00;101624.41;5057062;28;20032;-72
2024/01/06 03:19:27;;;;;;;5.18;2.45;;;;;;;-14.52;100.00;101666.34;5056411;28;20063;-72
2024/01/06 03:21:53;;;;;;;5.10;2.13;;;;;;;-14.77;100.00;101637.34;5056567;28;20403;-72
2024/01/06 03:24:19;;;;;;;6.15;2.45;;;;;;;-14.61;100.00;101669.03;5074452;28;20036;-71
2024/01/06 03:26:45;;;;;;;5.75;2.70;;;;;;;-14.61;100.00;101679.38;5039300;28;20036;-71
2024/01/06 03:29:10;;;;;;;3.83;2.25;;;;;;;-14.66;100.00;101679.44;5056210;28;20107;-72
2024/01/06 03:31:36;;;;;;;4.05;2.42;;;;;;;-14.91;100.00;101637.53;5038815;28;20036;-71
2024/01/06 03:34:01;;;;;;;4.72;2.22;;;;;;;-14.62;100.00;101672.50;5055343;28;20529;-71
2024/01/06 03:36:26;;;;;;;4.45;2.35;;;;;;;-14.69;100.00;101682.91;5055604;28;20040;-71
2024/01/06 03:38:52;;;;;;;7.05;2.47;;;;;;;-14.71;100.00;101682.06;5038956;28;20035;-71
2024/01/06 03:41:17;;;;;;;5.20;2.50;;;;;;;-14.77;100.00;101679.53;5039710;28;20138;-71
2024/01/06 03:43:42;;;;;;;4.53;2.35;;;;;;;-14.74;100.00;101687.25;5072099;28;20080;-72
2024/01/06 03:46:08;;;;;;;3.97;2.22;;;;;;;-14.77;100.00;101682.13;5038005;28;20035;-71
2024/01/06 03:48:33;;;;;;;4.90;2.22;;;;;;;-14.77;100.00;101694.19;5063225;28;20032;-72
2024/01/06 03:51:03;;;;;;;4.63;2.50;;;;;;;-14.78;100.00;101697.66;5055159;28;20395;-71
2024/01/06 03:53:30;;;;;;;9.00;2.58;;;;;;;-14.81;100.00;101693.34;5074242;28;20036;-72
2024/01/06 03:55:55;;;;;;;3.53;1.92;;;;;;;-14.89;100.00;101689.16;5067781;28;20084;-71
2024/01/06 03:58:21;;;;;;;4.28;2.08;;;;;;;-14.93;100.00;101696.06;5025354;28;20052;-71
2024/01/06 04:00:46;;;;;;;3.95;2.17;;;;;;;-15.16;100.00;101667.91;5075150;28;20217;-72
2024/01/06 04:03:11;;;;;;;4.95;2.35;;;;;;;-14.95;100.00;101705.56;5055116;28;20078;-72
2024/01/06 04:05:37;;;;;;;3.28;1.95;;;;;;;-15.16;100.00;101675.66;5054921;28;20573;-71
2024/01/06 04:08:02;;;;;;;6.68;2.30;;;;;;;-15.05;100.00;101703.94;5037890;28;20059;-73
2024/01/06 04:10:27;;;;;;;5.03;1.90;;;;;;;-14.98;100.00;101716.78;5072659;28;20551;-71
2024/01/06 04:12:54;;;;;;;4.75;1.88;;;;;;;-14.96;100.00;101724.53;5054973;28;20029;-72
2024/01/06 04:15:19;;;;;;;4.40;2.03;;;;;;;-14.95;100.00;101726.22;5073084;28;20020;-72
2024/01/06 04:17:49;;;;;;;4.22;2.20;;;;;;;-14.99;100.00;101721.97;5055074;28;20055;-71
2024/01/06 04:20:14;;;;;;;5.22;2.17;;;;;;;-15.06;100.00;101720.28;5072880;28;20031;-71
2024/01/06 04:22:39;;;;;;;3.97;2.10;;;;;;;-15.13;100.00;101718.63;5038896;28;20542;-72
2024/01/06 04:25:05;;;;;;;3.95;2.00;;;;;;;-15.26;100.00;101711.03;5041988;28;20491;-71
2024/01/06 04:27:31;;;;;;;4.38;2.05;;;;;;;-15.28;100.00;101727.38;5073294;28;20074;-71
2024/01/06 04:29:56;;;;;;;4.97;2.22;;;;;;;-15.36;100.00;101730.03;5071868;28;20081;-71
2024/01/06 04:32:22;;;;;;;5.72;2.30;;;;;;;-15.43;100.00;101725.78;5061502;28;20028;-71
2024/01/06 04:34:47;;;;;;;4.13;1.77;;;;;;;-15.63;100.00;101702.69;5078624;28;20113;-72
2024/01/06 04:37:13;;;;;;;3.97;2.20;;;;;;;-15.52;100.00;101725.88;5072654;28;20028;-71
2024/01/06 04:39:38;;;;;;;3.33;1.92;;;;;;;-15.50;100.00;101730.13;5054593;28;20052;-71
2024/01/06 04:42:04;;;;;;;3.17;1.77;;;;;;;-15.72;100.00;101701.09;5054381;28;20035;-72
2024/01/06 04:44:30;;;;;;;5.72;2.20;;;;;;;-15.50;100.00;101727.53;5054746;28;20066;-71
2024/01/06 04:46:55;;;;;;;3.15;1.83;;;;;;;-15.43;100.00;101738.66;5072418;28;20669;-71
2024/01/06 04:49:21;;;;;;;5.72;1.95;;;;;;;-15.45;100.00;101740.44;5055225;28;20487;-71
2024/01/06 04:51:48;;;;;;;5.97;2.22;;;;;;;-15.46;100.00;101746.44;5057408;28;20433;-71
2024/01/06 04:54:13;;;;;;;5.82;2.03;;;;;;;-15.49;100.00;101738.75;5073071;28;20036;-71
2024/01/06 04:56:39;;;;;;;4.95;1.80;;;;;;;-15.51;100.00;101740.47;5054293;28;20112;-71
2024/01/06 04:59:05;;;;;;;3.80;1.80;;;;;;;-15.51;100.00;101740.47;5037598;28;20040;-71
2024/01/06 05:01:30;;;;;;;7.07;2.25;;;;;;;-15.48;100.00;101737.88;5072342;28;20036;-71
2024/01/06 05:03:56;;;;;;;3.72;2.00;;;;;;;-15.47;100.00;101731.81;5071994;28;20522;-72
2024/01/06 05:06:22;;;;;;;3.75;1.70;;;;;;;-15.41;100.00;101740.38;5071080;28;20503;-71
2024/01/06 05:08:48;;;;;;;4.25;2.10;;;;;;;-15.73;100.00;101673.56;5038710;28;20032;-71
2024/01/06 05:11:13;;;;;;;5.53;1.90;;;;;;;-15.64;100.00;101703.59;5055421;28;20033;-71
2024/01/06 05:13:39;;;;;;;4.15;1.98;;;;;;;-15.55;100.00;101711.25;5038739;28;20035;-71
2024/01/06 05:16:04;;;;;;;3.47;2.08;;;;;;;-15.43;100.00;101733.50;5037642;28;20041;-71
2024/01/06 05:18:31;;;;;;;3.72;2.20;;;;;;;-15.35;100.00;101736.06;5054540;28;20497;-71
2024/01/06 05:20:57;;;;;;;3.75;1.75;;;;;;;-15.34;100.00;101738.59;5080033;28;20036;-71
2024/01/06 05:23:22;;;;;;;4.07;2.00;;;;;;;-15.44;100.00;101736.97;5061111;28;20029;-71
2024/01/06 05:25:48;;;;;;;4.10;2.08;;;;;;;-15.64;100.00;101712.16;5042491;28;20032;-71
2024/01/06 05:28:13;;;;;;;5.30;2.20;;;;;;;-15.37;100.00;101745.53;5077634;28;20029;-71
2024/01/06 05:30:38;;;;;;;5.68;2.28;;;;;;;-15.34;100.00;101748.06;5075737;28;20028;-71
2024/01/06 05:33:04;;;;;;;4.18;2.13;;;;;;;-16.01;100.00;101636.84;5041107;28;20150;-71
2024/01/06 05:35:29;;;;;;;4.65;2.00;;;;;;;-15.47;100.00;101743.00;5075070;28;20024;-71
2024/01/06 05:37:55;;;;;;;3.47;1.95;;;;;;;-15.40;100.00;101754.97;5039897;28;20124;-72
2024/01/06 05:40:21;;;;;;;3.80;1.90;;;;;;;-15.43;100.00;101762.78;5056865;28;20032;-71
2024/01/06 05:42:46;;;;;;;4.07;2.00;;;;;;;-15.47;100.00;101758.47;5076383;28;20545;-71
2024/01/06 05:45:14;;;;;;;3.83;2.20;;;;;;;-15.45;100.00;101771.38;5060450;28;20029;-72
2024/01/06 05:47:40;;;;;;;5.07;2.15;;;;;;;-15.72;100.00;101729.47;5043002;28;20131;-71
2024/01/06 05:50:07;;;;;;;5.70;1.80;;;;;;;-15.69;100.00;101749.22;5057391;28;20111;-71
2024/01/06 05:52:33;;;;;;;3.83;2.00;;;;;;;-15.54;100.00;101777.44;5057119;28;20056;-70
2024/01/06 05:54:58;;;;;;;4.22;2.13;;;;;;;-15.62;100.00;101779.25;5056525;28;20119;-71
2024/01/06 05:57:24;;;;;;;3.65;1.77;;;;;;;-15.62;100.00;101789.56;5057497;28;20059;-71
2024/01/06 05:59:51;;;;;;;3.90;1.73;;;;;;;-15.63;100.00;101792.97;5056819;28;20028;-71
2024/01/06 06:02:16;;;;;;;3.95;2.17;;;;;;;-15.57;100.00;101795.53;5075664;28;20132;-71
2024/01/06 06:04:41;;;;;;;5.35;2.10;;;;;;;-15.56;100.00;101798.97;5057029;28;20547;-71
2024/01/06 06:07:07;;;;;;;4.35;1.83;;;;;;;-15.64;100.00;101806.75;5075059;28;20332;-71
2024/01/06 06:09:34;;;;;;;4.78;1.90;;;;;;;-15.72;100.00;101811.16;5057476;28;20032;-70
2024/01/06 06:12:00;;;;;;;3.90;1.75;;;;;;;-15.79;100.00;101820.63;5056801;28;20491;-71
2024/01/06 06:14:25;;;;;;;4.80;1.75;;;;;;;-15.86;100.00;101811.19;5045341;28;20040;-70
2024/01/06 06:16:50;;;;;;;4.28;1.75;;;;;;;-15.88;100.00;101821.53;5064946;28;20033;-72
2024/01/06 06:19:18;;;;;;;4.53;2.10;;;;;;;-15.84;100.00;101830.09;5078371;28;20029;-71
2024/01/06 06:21:43;;;;;;;9.10;3.72;;;;;;;-15.90;100.00;101828.38;5057671;28;20589;-71
2024/01/06 06:24:08;;;;;;;17.27;6.65;;;;;;;-15.89;100.00;101836.97;5024288;28;20056;-71
2024/01/06 06:26:34;;;;;;;10.57;4.28;;;;;;;-16.02;100.00;101837.88;5056808;28;20479;-71
2024/01/06 06:29:00;;;;;;;7.18;2.47;;;;;;;-15.98;100.00;101849.94;5056540;28;20521;-71
2024/01/06 06:31:25;;;;;;;3.17;1.60;;;;;;;-16.05;100.00;101861.13;5040338;28;20033;-71
2024/01/06 06:33:51;;;;;;;3.45;1.90;;;;;;;-16.07;100.00;101860.25;5040674;28;20491;-71
2024/01/06 06:36:16;;;;;;;6.72;1.75;;;;;;;-16.10;100.00;101861.13;5074084;28;20063;-71
2024/01/06 06:38:42;;;;;;;4.43;1.98;;;;;;;-16.33;100.00;101819.94;5056821;28;20031;-72
2024/01/06 06:41:07;;;;;;;3.95;2.08;;;;;;;-16.13;100.00;101854.25;5056722;28;20060;-71
2024/01/06 06:43:32;;;;;;;3.85;1.92;;;;;;;-16.12;100.00;101866.28;5073638;28;20060;-72
2024/01/06 06:45:58;;;;;;;3.78;2.15;;;;;;;-16.16;100.00;101864.56;5055689;28;20063;-71
2024/01/06 06:48:23;;;;;;;3.70;1.63;;;;;;;-16.21;100.00;101871.47;5039530;28;20055;-71
2024/01/06 06:50:48;;;;;;;3.72;1.60;;;;;;;-16.23;100.00;101870.59;5055966;28;20035;-71
2024/01/06 06:53:14;;;;;;;3.95;1.90;;;;;;;-16.20;100.00;101867.16;5056166;28;20036;-71
2024/01/06 06:55:40;;;;;;;6.47;2.10;;;;;;;-16.13;100.00;101880.03;5073400;28;20020;-71
2024/01/06 06:58:06;;;;;;;3.70;2.08;;;;;;;-16.12;100.00;101886.91;5055834;28;20459;-72
2024/01/06 07:00:31;;;;;;;5.63;3.08;;;;;;;-16.18;100.00;101879.19;5055886;28;20058;-71
2024/01/06 07:02:57;;;;;;;4.30;2.15;;;;;;;-16.44;100.00;101853.47;5075886;28;20071;-70
2024/01/06 07:05:22;;;;;;;3.97;1.83;;;;;;;-16.18;100.00;101896.38;5076230;28;20036;-68
2024/01/06 07:07:48;;;;;;;2.70;1.50;;;;;;;-16.36;100.00;101866.34;5074877;28;20036;-68
2024/01/06 07:10:13;;;;;;;5.38;2.10;;;;;;;-16.15;100.00;101910.13;5057554;28;20127;-70
2024/01/06 07:12:39;;;;;;;4.28;2.15;;;;;;;-16.15;100.00;101901.53;5078989;28;20050;-71
2024/01/06 07:15:05;;;;;;;6.07;3.10;;;;;;;-16.11;100.00;101911.81;5075376;28;20025;-71
2024/01/06 07:17:30;;;;;;;8.00;3.17;;;;;;;-16.33;100.00;101876.63;5074173;28;20108;-71
2024/01/06 07:19:55;;;;;;;11.40;4.00;;;;;;;-16.08;100.00;101933.31;5039307;28;20028;-71
2024/01/06 07:22:21;;;;;;;8.52;3.58;;;;;;;-16.07;100.00;101928.13;5073867;28;20031;-71
2024/01/06 07:24:46;;;;;;;7.65;2.70;;;;;;;-16.08;100.00;101933.31;5038743;28;20533;-72
2024/01/06 07:27:12;;;;;;;7.18;3.05;;;;;;;-16.06;100.00;101934.13;5055299;28;20024;-71
2024/01/06 07:29:38;;;;;;;12.77;5.50;;;;;;;-16.00;100.00;101934.13;5038223;28;20040;-70
2024/01/06 07:32:06;;;;;;;9.02;4.50;;;;;;;-15.95;100.00;101937.56;5038787;28;20032;-71
2024/01/06 07:34:31;;;;;;;17.63;7.32;;;;;;;-15.94;100.00;101928.97;5055450;28;20029;-71
2024/01/06 07:36:57;;;;;;;19.45;6.68;;;;;;;-16.06;100.00;101904.06;5072393;28;20532;-72
2024/01/06 07:39:24;;;;;;;14.73;5.88;;;;;;;-15.83;100.00;101957.31;5082146;28;20215;-71
2024/01/06 07:41:49;;;;;;;10.80;4.85;;;;;;;-15.97;100.00;101939.28;5045789;28;20028;-71
2024/01/06 07:44:16;;;;;;;9.07;4.10;;;;;;;-15.92;100.00;101956.47;5054424;28;20059;-71
2024/01/06 07:46:41;;;;;;;6.85;3.53;;;;;;;-15.92;100.00;101960.78;5037896;28;20097;-71
2024/01/06 07:49:07;;;;;;;6.25;3.60;;;;;;;-15.90;100.00;101961.63;5071283;28;20499;-72
2024/01/06 07:51:34;;;;;;;5.05;2.90;;;;;;;-15.86;100.00;101971.06;5073006;28;20028;-71
2024/01/06 07:54:00;;;;;;;5.45;2.50;;;;;;;-15.80;100.00;101972.78;5073329;28;20127;-72
2024/01/06 07:56:26;;;;;;;4.65;2.38;;;;;;;-15.73;100.00;101980.47;5054722;28;20508;-71
2024/01/06 07:58:52;;;;;;;6.50;2.50;;;;;;;-15.76;100.00;101982.22;5055323;28;20035;-71
2024/01/06 08:01:17;;;;;;;6.07;2.67;;;;;;;-15.82;100.00;101982.22;5055721;28;20038;-71
2024/01/06 08:03:43;;;;;;;6.22;2.47;;;;;;;-15.86;100.00;101983.94;5078553;28;20052;-71
2024/01/06 08:06:09;;;;;;;6.50;3.00;;;;;;;-15.80;100.00;101991.66;5080988;28;20031;-72
2024/01/06 08:08:35;;;;;;;7.25;3.20;;;;;;;-16.09;100.00;101936.72;5073456;28;20032;-71
2024/01/06 08:11:00;;;;;;;8.05;2.72;;;;;;;-15.76;100.00;101993.38;5074741;28;20116;-71
2024/01/06 08:13:26;;;;;;;4.57;2.70;;;;;;;-15.76;100.00;101997.69;5073497;28;20068;-72
2024/01/06 08:15:53;;;;;;;8.25;3.30;;;;;;;-15.76;100.00;101998.53;5054845;28;20055;-72
2024/01/06 08:18:18;;;;;;;5.72;2.50;;;;;;;-15.78;100.00;102005.44;5083703;28;20024;-71
2024/01/06 08:20:43;;;;;;;6.13;2.90;;;;;;;-15.90;100.00;101997.72;5072831;28;20064;-71
2024/01/06 08:23:10;;;;;;;7.38;3.55;;;;;;;-15.84;100.00;102022.63;5072806;28;20072;-72
2024/01/06 08:25:36;;;;;;;9.50;3.70;;;;;;;-16.07;100.00;101991.72;5072091;28;20056;-71
2024/01/06 08:28:01;;;;;;;5.90;3.10;;;;;;;-15.82;100.00;102016.63;5072342;28;20027;-70
2024/01/06 08:30:26;;;;;;;8.48;3.75;;;;;;;-15.72;100.00;102027.78;5072733;28;20505;-72
2024/01/06 08:32:52;;;;;;;5.75;3.13;;;;;;;-15.69;100.00;102028.63;5054684;28;20043;-71
2024/01/06 08:35:19;;;;;;;7.03;3.00;;;;;;;-15.72;100.00;102028.63;5037400;28;20113;-71
2024/01/06 08:37:44;;;;;;;5.10;2.58;;;;;;;-15.68;100.00;102021.75;5054387;28;20021;-71
2024/01/06 08:40:10;;;;;;;5.78;2.97;;;;;;;-15.66;100.00;102026.03;5071756;28;20040;-71
2024/01/06 08:42:36;;;;;;;6.13;2.83;;;;;;;-15.63;100.00;102030.28;5070711;28;20076;-72
2024/01/06 08:45:02;;;;;;;7.57;3.20;;;;;;;-15.67;100.00;102026.03;5072329;28;20029;-71
2024/01/06 08:47:27;;;;;;;11.32;4.10;;;;;;;-15.66;100.00;102031.19;5040646;28;20036;-71
2024/01/06 08:49:52;;;;;;;8.43;3.85;;;;;;;-15.65;100.00;102022.56;5074207;28;20396;-70
2024/01/06 08:52:18;;;;;;;8.65;3.97;;;;;;;-15.61;100.00;102040.63;5054481;28;20119;-71
2024/01/06 08:54:44;;;;;;;6.38;3.55;;;;;;;-15.64;100.00;102044.06;5037676;28;20028;-71
2024/01/06 08:57:10;;;;;;;5.32;3.50;;;;;;;-15.59;100.00;102046.63;5053869;28;20033;-71
2024/01/06 08:59:35;;;;;;;8.48;4.43;;;;;;;-15.56;100.00;102046.63;5057125;28;20032;-72
2024/01/06 09:02:01;;;;;;;8.43;4.32;;;;;;;-15.60;100.00;102032.88;5041587;28;20033;-72
2024/01/06 09:04:27;;;;;;;10.07;5.70;;;;;;;-15.45;100.00;102055.22;5043150;28;20060;-72
2024/01/06 09:06:52;;;;;;;8.25;5.15;;;;;;;-15.41;100.00;102049.19;5059010;28;20032;-71
2024/01/06 09:09:17;;;;;;;9.57;5.32;;;;;;;-15.39;100.00;102050.03;5041712;28;20123;-72
2024/01/06 09:11:44;;;;;;;8.20;3.92;;;;;;;-15.44;100.00;102039.72;5076038;28;20123;-70
2024/01/06 09:14:12;;;;;;;8.07;3.83;;;;;;;-15.31;100.00;102062.91;5075981;28;20032;-71
2024/01/06 09:16:38;;;;;;;7.38;3.97;;;;;;;-15.27;100.00;102069.78;5058592;28;20031;-71
2024/01/06 09:19:03;;;;;;;8.20;4.25;;;;;;;-15.21;100.00;102064.59;5076000;28;20033;-71
2024/01/06 09:21:28;;;;;;;10.15;5.90;;;;;;;-15.19;100.00;102068.91;5057747;28;20028;-71
2024/01/06 09:23:54;;;;;;;10.68;5.65;;;;;;;-15.35;100.00;102045.72;5057641;28;20043;-71
2024/01/06 09:26:19;;;;;;;11.65;4.57;;;;;;;-15.16;100.00;102081.81;5075497;28;20028;-71
2024/01/06 09:28:44;;;;;;;6.15;3.08;;;;;;;-15.06;100.00;102074.91;5074228;28;20399;-70
2024/01/06 09:31:10;;;;;;;27.73;13.88;;;;;;;-15.04;100.00;102064.53;5075294;28;20032;-71
2024/01/06 09:33:35;;;;;;;110.88;53.13;;;;;;;-14.92;100.00;102077.41;5040843;28;20036;-71
2024/01/06 09:36:01;;;;;;;61.33;26.80;;;;;;;-14.87;100.00;102075.66;5057207;28;20035;-71
2024/01/06 09:38:27;;;;;;;41.03;19.77;;;;;;;-14.79;100.00;102076.50;5075272;28;20098;-71
2024/01/06 09:40:53;;;;;;;15.85;8.13;;;;;;;-14.86;100.00;102066.19;5060131;28;20486;-72
2024/01/06 09:43:19;;;;;;;8.20;4.78;;;;;;;-14.74;100.00;102064.41;5060002;28;20048;-70
2024/01/06 09:45:57;;;;;;;12.20;6.03;;;;;;;-14.61;100.00;102077.28;5057445;28;20024;-70
2024/01/06 09:48:29;;;;;;;9.95;4.60;;;;;;;-14.70;100.00;102053.22;5075711;28;20020;-71
2024/01/06 09:50:56;;;;;;;7.50;4.15;;;;;;;-14.50;100.00;102071.16;5056744;28;20275;-70
2024/01/06 09:53:29;;;;;;;9.32;4.00;;;;;;;-14.35;100.00;102096.03;5074917;28;20082;-71
2024/01/06 09:55:56;;;;;;;6.65;3.47;;;;;;;-14.28;100.00;102095.13;5064090;28;20058;-71
2024/01/06 09:58:21;;;;;;;6.63;3.55;;;;;;;-14.20;100.00;102095.09;5041633;28;20032;-71
2024/01/06 10:00:49;;;;;;;7.15;3.60;;;;;;;-14.25;100.00;102086.50;5056849;28;20399;-71
2024/01/06 10:03:14;;;;;;;8.38;4.50;;;;;;;-14.04;100.00;102111.34;5040581;28;20039;-71
2024/01/06 10:05:40;;;;;;;10.30;5.55;;;;;;;-13.93;100.00;102109.56;5040415;28;20036;-71
2024/01/06 10:08:05;;;;;;;11.13;5.68;;;;;;;-13.84;100.00;102113.78;5073774;28;20028;-70
2024/01/06 10:10:34;;;;;;;9.30;5.15;;;;;;;-13.87;100.00;102093.09;5074648;28;20502;-71
2024/01/06 10:12:59;;;;;;;15.60;7.28;;;;;;;-13.69;100.00;102112.81;5075015;28;20023;-71
2024/01/06 10:15:25;;;;;;;18.30;7.97;;;;;;;-13.78;100.00;102090.47;5074601;28;20024;-71
2024/01/06 10:17:53;;;;;;;17.27;8.30;;;;;;;-13.58;100.00;102114.44;5073013;28;20040;-71
2024/01/06 10:20:20;;;;;;;19.80;9.65;;;;;;;-13.71;100.00;102081.75;5040068;28;20028;-71
2024/01/06 10:22:45;;;;;;;18.42;9.57;;;;;;;-13.49;100.00;102116.09;5073053;28;20475;-71
2024/01/06 10:25:11;;;;;;;37.17;13.15;;;;;;;-13.46;100.00;102122.97;5074104;28;20090;-71
2024/01/06 10:27:41;;;;;;;185.35;42.13;;;;;;;-13.37;100.00;102130.66;5039939;28;20078;-71
2024/01/06 10:30:07;;;;;;;51.97;19.70;;;;;;;-13.26;100.00;102134.84;5074235;28;20033;-71
2024/01/06 10:32:33;;;;;;;27.08;11.55;;;;;;;-13.11;100.00;102140.72;5075766;28;20025;-71
2024/01/06 10:35:01;;;;;;;17.08;8.25;;;;;;;-12.97;100.00;102141.44;5060055;28;20020;-71
2024/01/06 10:37:27;;;;;;;17.40;8.07;;;;;;;-12.86;100.00;102147.34;5075009;28;20035;-72
2024/01/06 10:40:12;;;;;;;10.57;5.35;;;;;;;-12.74;100.00;102140.34;5039561;28;20039;-72
2024/01/06 10:42:39;;;;;;;82.32;28.95;;;;;;;-12.66;100.00;102122.94;5057461;28;20624;-71
2024/01/06 10:45:10;;;;;;;99.15;38.13;;;;;;;-12.65;100.00;102112.53;5056205;28;20409;-70
2024/01/06 10:47:37;;;;;;;42.63;17.30;;;;;;;-12.43;100.00;102128.69;5053007;28;20383;-71
2024/01/06 10:50:03;;;;;;;38.13;14.18;;;;;;;-12.35;100.00;102134.66;5074248;28;20035;-71
2024/01/06 10:52:29;;;;;;;59.35;22.38;;;;;;;-12.32;100.00;102120.75;5039892;28;20071;-71
2024/01/06 10:54:55;;;;;;;47.20;18.98;;;;;;;-12.18;100.00;102121.44;5072653;28;20487;-71
2024/01/06 10:57:21;;;;;;;62.05;20.67;;;;;;;-12.08;100.00;102135.16;5074099;28;20046;-71
2024/01/06 10:59:49;;;;;;;70.22;27.27;;;;;;;-12.15;100.00;102113.63;5055927;28;20033;-72
2024/01/06 11:02:18;;;;;;;35.00;14.30;;;;;;;-11.93;100.00;102136.66;5074280;28;20032;-71